createdAt,value
2023-04-12T00:00:51.955Z,100515.94
2023-04-12T00:03:21.332Z,100520.06
2023-04-12T00:05:55.291Z,100511.09
2023-04-12T00:08:33.941Z,100505.03
2023-04-12T00:11:08.882Z,100511.09
2023-04-12T00:13:41.871Z,100492.47
2023-04-12T00:16:16.017Z,100492.22
2023-04-12T00:18:42.855Z,100485.94
2023-04-12T00:21:16.920Z,100477.09
2023-04-12T00:23:52.029Z,100469.13
2023-04-12T00:26:18.772Z,100467.19
2023-04-12T00:28:45.605Z,100460.88
2023-04-12T00:31:19.018Z,100455.56
2023-04-12T00:33:52.325Z,100458.94
2023-04-12T00:36:25.944Z,100448.69
2023-04-12T00:38:58.928Z,100454.34
2023-04-12T00:41:32.993Z,100441.75
2023-04-12T00:43:59.901Z,100433.50
2023-04-12T00:46:33.019Z,100430.84
2023-04-12T00:49:06.924Z,100428.91
2023-04-12T00:51:33.964Z,100422.50
2023-04-12T00:54:07.920Z,100416.91
2023-04-12T00:56:42.012Z,100416.66
2023-04-12T00:59:14.988Z,100410.25
2023-04-12T01:01:42.000Z,100403.94
2023-04-12T01:04:16.010Z,100393.28
2023-04-12T01:07:01.934Z,100393.03
2023-04-12T01:09:40.791Z,100370.44
2023-04-12T01:12:33.880Z,100377.06
2023-04-12T01:15:20.011Z,100372.72
2023-04-12T01:18:19.972Z,100375.78
2023-04-12T01:21:02.406Z,100371.81
2023-04-12T01:24:08.006Z,100355.88
2023-04-12T01:26:54.993Z,100360.16
2023-04-12T01:29:23.156Z,100357.69
2023-04-12T01:32:14.009Z,100360.97
2023-04-12T01:34:47.872Z,100351.09
2023-04-12T01:37:22.950Z,100351.59
2023-04-12T01:39:50.689Z,100323.69
2023-04-12T01:42:26.998Z,100324.09
2023-04-12T01:44:53.731Z,100314.91
2023-04-12T01:47:27.004Z,100318.19
2023-04-12T01:50:16.670Z,100312.25
2023-04-12T01:53:09.965Z,100315.16
2023-04-12T01:55:39.987Z,100288.00
2023-04-12T01:58:14.972Z,100284.63
2023-04-12T02:00:44.764Z,100277.16
2023-04-12T02:03:19.183Z,100275.47
2023-04-12T02:05:46.242Z,100274.63
2023-04-12T02:08:19.925Z,100271.25
2023-04-12T02:10:46.703Z,100258.47
2023-04-12T02:13:19.997Z,100256.91
2023-04-12T02:15:46.906Z,100252.69
2023-04-12T02:18:14.178Z,100244.84
2023-04-12T02:20:48.058Z,100241.47
2023-04-12T02:23:21.027Z,100229.25
2023-04-12T02:25:54.963Z,100226.88
2023-04-12T02:28:29.944Z,100214.44
2023-04-12T02:31:02.969Z,100216.38
2023-04-12T02:33:36.114Z,100206.69
2023-04-12T02:36:17.949Z,100195.59
2023-04-12T02:38:44.696Z,100188.34
2023-04-12T02:41:24.021Z,100183.31
2023-04-12T02:43:51.313Z,100172.56
2023-04-12T02:46:31.065Z,100169.03
2023-04-12T02:48:58.075Z,100162.19
2023-04-12T02:51:31.027Z,100152.50
2023-04-12T02:53:57.881Z,100144.69
2023-04-12T02:56:30.958Z,100137.56
2023-04-12T02:59:04.050Z,100124.28
2023-04-12T03:01:32.237Z,100132.56
2023-04-12T03:04:05.024Z,100113.03
2023-04-12T03:06:39.050Z,100102.50
2023-04-12T03:09:05.711Z,100103.09
2023-04-12T03:11:32.453Z,100091.50
2023-04-12T03:14:05.974Z,100072.91
2023-04-12T03:16:32.778Z,100068.31
2023-04-12T03:19:06.013Z,100077.97
2023-04-12T03:21:33.753Z,100079.78
2023-04-12T03:24:07.962Z,100057.69
2023-04-12T03:26:35.103Z,100041.91
2023-04-12T03:29:15.026Z,100036.69
2023-04-12T03:31:41.970Z,100034.28
2023-04-12T03:34:22.049Z,100032.50
2023-04-12T03:36:48.957Z,100035.28
2023-04-12T03:39:15.832Z,100015.56
2023-04-12T03:41:56.068Z,100010.38
2023-04-12T03:44:29.059Z,100018.22
2023-04-12T03:46:56.018Z,100009.44
2023-04-12T03:49:29.016Z,100009.44
2023-04-12T03:52:02.045Z,99996.97
2023-04-12T03:54:35.040Z,99973.22
2023-04-12T03:57:02.318Z,99953.09
2023-04-12T03:59:35.982Z,99945.94
2023-04-12T04:02:09.062Z,99940.38
2023-04-12T04:04:37.824Z,99940.47
2023-04-12T04:07:11.047Z,99945.94
2023-04-12T04:09:37.719Z,99943.41
2023-04-12T04:12:11.004Z,99924.81
2023-04-12T04:14:37.661Z,99927.63
2023-04-12T04:17:11.134Z,99944.25
2023-04-12T04:19:44.997Z,99938.81
2023-04-12T04:22:20.052Z,99926.63
2023-04-12T04:24:48.504Z,99930.25
2023-04-12T04:27:21.995Z,99916.28
2023-04-12T04:29:48.936Z,99913.63
2023-04-12T04:32:36.035Z,99911.09
2023-04-12T04:35:09.184Z,99911.38
2023-04-12T04:37:35.948Z,99908.81
2023-04-12T04:40:15.104Z,99902.13
2023-04-12T04:42:50.106Z,99901.38
2023-04-12T04:45:24.060Z,99895.22
2023-04-12T04:47:51.299Z,99897.16
2023-04-12T04:50:25.046Z,99899.09
2023-04-12T04:52:58.081Z,99886.94
2023-04-12T04:55:25.946Z,99885.50
2023-04-12T04:57:52.609Z,99878.53
2023-04-12T05:00:26.050Z,99877.56
2023-04-12T05:02:52.878Z,99876.97
2023-04-12T05:05:30.100Z,99862.16
2023-04-12T05:08:04.039Z,99866.03
2023-04-12T05:10:30.755Z,99863.78
2023-04-12T05:13:04.064Z,99851.84
2023-04-12T05:15:32.059Z,99852.97
2023-04-12T05:18:05.111Z,99863.59
2023-04-12T05:20:39.131Z,99849.03
2023-04-12T05:23:12.121Z,99855.44
2023-04-12T05:25:44.916Z,99851.25
2023-04-12T05:28:21.026Z,99847.28
2023-04-12T05:30:47.768Z,99849.22
2023-04-12T05:33:28.108Z,99846.72
2023-04-12T05:36:01.273Z,99851.31
2023-04-12T05:38:34.043Z,99842.75
2023-04-12T05:41:04.355Z,99834.22
2023-04-12T05:43:38.086Z,99822.19
2023-04-12T05:46:14.096Z,99821.38
2023-04-12T05:48:47.027Z,99821.47
2023-04-12T05:51:27.775Z,99821.72
2023-04-12T05:54:08.118Z,99816.56
2023-04-12T05:56:34.795Z,99804.16
2023-04-12T05:59:01.747Z,99804.97
2023-04-12T06:01:42.128Z,99793.69
2023-04-12T06:04:09.167Z,99809.69
2023-04-12T06:06:42.050Z,99804.53
2023-04-12T06:09:10.025Z,99800.06
2023-04-12T06:11:46.068Z,99789.47
2023-04-12T06:14:12.771Z,99792.97
2023-04-12T06:16:46.102Z,99777.28
2023-04-12T06:19:12.825Z,99771.75
2023-04-12T06:21:46.128Z,99776.19
2023-04-12T06:24:12.878Z,99773.56
2023-04-12T06:26:46.184Z,99756.94
2023-04-12T06:29:19.067Z,99755.13
2023-04-12T06:31:52.243Z,99766.59
2023-04-12T06:34:25.490Z,99761.50
2023-04-12T06:36:59.160Z,99765.28
2023-04-12T06:39:32.396Z,99756.34
2023-04-12T06:41:59.794Z,99744.88
2023-04-12T06:44:34.125Z,99746.72
2023-04-12T06:47:00.986Z,99749.38
2023-04-12T06:49:34.141Z,99745.03
2023-04-12T06:52:07.131Z,99750.19
2023-04-12T06:54:37.135Z,99742.09
2023-04-12T06:57:10.184Z,99741.28
2023-04-12T06:59:43.126Z,99738.63
2023-04-12T07:02:09.923Z,99728.97
2023-04-12T07:04:43.108Z,99730.81
2023-04-12T07:07:10.458Z,99732.47
2023-04-12T07:09:44.134Z,99727.75
2023-04-12T07:12:10.872Z,99717.16
2023-04-12T07:14:37.622Z,99707.25
2023-04-12T07:17:11.147Z,99716.78
2023-04-12T07:19:37.931Z,99716.28
2023-04-12T07:22:13.481Z,99711.56
2023-04-12T07:24:40.701Z,99714.22
2023-04-12T07:27:14.143Z,99708.25
2023-04-12T07:29:40.916Z,99708.91
2023-04-12T07:32:16.078Z,99709.91
2023-04-12T07:34:56.113Z,99714.50
2023-04-12T07:37:22.808Z,99704.88
2023-04-12T07:39:56.158Z,99695.22
2023-04-12T07:42:29.177Z,99693.28
2023-04-12T07:45:03.266Z,99685.31
2023-04-12T07:47:30.108Z,99683.38
2023-04-12T07:50:04.118Z,99676.78
2023-04-12T07:52:30.942Z,99682.22
2023-04-12T07:55:04.204Z,99687.41
2023-04-12T07:57:33.659Z,99681.97
2023-04-12T08:00:07.113Z,99682.94
2023-04-12T08:02:33.794Z,99677.50
2023-04-12T08:05:07.191Z,99678.47
2023-04-12T08:07:34.807Z,99673.50
2023-04-12T08:10:08.098Z,99666.38
2023-04-12T08:12:34.912Z,99664.75
2023-04-12T08:15:08.106Z,99667.25
2023-04-12T08:17:35.364Z,99661.09
2023-04-12T08:20:02.000Z,99671.72
2023-04-12T08:22:35.138Z,99657.75
2023-04-12T08:25:01.989Z,99663.38
2023-04-12T08:27:36.179Z,99665.19
2023-04-12T08:30:03.937Z,99665.88
2023-04-12T08:32:37.198Z,99662.94
2023-04-12T08:35:10.677Z,99679.72
2023-04-12T08:37:44.190Z,99678.03
2023-04-12T08:40:11.598Z,99662.81
2023-04-12T08:42:45.201Z,99666.47
2023-04-12T08:45:13.022Z,99663.38
2023-04-12T08:47:51.160Z,99666.75
2023-04-12T08:50:26.225Z,99665.50
2023-04-12T08:52:53.667Z,99673.34
2023-04-12T08:55:27.112Z,99668.47
2023-04-12T08:58:05.147Z,99657.84
2023-04-12T09:00:38.155Z,99652.97
2023-04-12T09:03:05.529Z,99660.91
2023-04-12T09:05:39.230Z,99653.25
2023-04-12T09:08:05.983Z,99651.00
2023-04-12T09:10:44.204Z,99652.44
2023-04-12T09:13:17.153Z,99648.78
2023-04-12T09:15:57.110Z,99655.66
2023-04-12T09:18:24.609Z,99652.84
2023-04-12T09:20:58.169Z,99649.34
2023-04-12T09:23:24.883Z,99649.09
2023-04-12T09:26:01.239Z,99654.97
2023-04-12T09:28:30.132Z,99647.56
2023-04-12T09:31:05.323Z,99646.31
2023-04-12T09:33:44.280Z,99634.28
2023-04-12T09:36:21.318Z,99642.47
2023-04-12T09:39:02.254Z,99643.59
2023-04-12T09:41:37.276Z,99637.97
2023-04-12T09:44:04.862Z,99642.03
2023-04-12T09:46:38.304Z,99628.91
2023-04-12T09:49:05.925Z,99643.00
2023-04-12T09:51:41.193Z,99637.97
2023-04-12T09:54:16.174Z,99632.53
2023-04-12T09:56:44.526Z,99640.50
2023-04-12T09:59:20.210Z,99639.78
2023-04-12T10:01:47.401Z,99643.72
2023-04-12T10:04:21.344Z,99640.50
2023-04-12T10:06:49.134Z,99639.81
2023-04-12T10:09:22.166Z,99649.31
2023-04-12T10:11:52.050Z,99652.50
2023-04-12T10:14:28.165Z,99644.53
2023-04-12T10:16:59.868Z,99646.31
2023-04-12T10:19:36.221Z,99644.47
2023-04-12T10:22:03.260Z,99638.44
2023-04-12T10:24:37.267Z,99638.13
2023-04-12T10:27:04.714Z,99640.06
2023-04-12T10:29:41.259Z,99636.00
2023-04-12T10:32:33.423Z,99635.25
2023-04-12T10:35:16.245Z,99636.22
2023-04-12T10:38:02.280Z,99627.19
2023-04-12T10:40:38.238Z,99625.31
2023-04-12T10:43:23.334Z,99621.38
2023-04-12T10:45:57.216Z,99608.44
2023-04-12T10:48:44.242Z,99596.59
2023-04-12T10:51:28.782Z,99596.31
2023-04-12T10:54:14.248Z,99604.63
2023-04-12T10:56:52.292Z,99599.25
2023-04-12T10:59:34.390Z,99600.66
2023-04-12T11:02:12.899Z,99599.22
2023-04-12T11:05:16.245Z,99601.28
2023-04-12T11:07:44.497Z,99601.31
2023-04-12T11:10:27.235Z,99601.44
2023-04-12T11:13:04.267Z,99600.88
2023-04-12T11:15:40.275Z,99598.78
2023-04-12T11:18:07.334Z,99598.91
2023-04-12T11:20:41.328Z,99593.47
2023-04-12T11:23:11.150Z,99595.00
2023-04-12T11:25:44.209Z,99590.47
2023-04-12T11:28:27.969Z,99592.22
2023-04-12T11:31:05.261Z,99587.13
2023-04-12T11:33:42.512Z,99602.50
2023-04-12T11:36:21.278Z,99592.72
2023-04-12T11:38:48.193Z,99596.94
2023-04-12T11:41:21.323Z,99607.44
2023-04-12T11:43:48.654Z,99602.78
2023-04-12T11:46:23.266Z,99599.81
2023-04-12T11:48:51.021Z,99607.00
2023-04-12T11:51:31.647Z,99601.97
2023-04-12T11:53:59.679Z,99595.63
2023-04-12T11:56:34.281Z,99596.31
2023-04-12T11:59:01.140Z,99601.53
2023-04-12T12:01:36.261Z,99598.91
2023-04-12T12:04:09.546Z,99594.56
2023-04-12T12:06:37.064Z,99589.88
2023-04-12T12:09:11.333Z,99595.88
2023-04-12T12:11:38.281Z,99596.81
2023-04-12T12:14:14.332Z,99605.78
2023-04-12T12:16:48.276Z,99600.63
2023-04-12T12:19:21.324Z,99594.88
2023-04-12T12:21:48.234Z,99595.56
2023-04-12T12:24:21.268Z,99589.72
2023-04-12T12:26:50.629Z,99586.53
2023-04-12T12:29:25.263Z,99589.97
2023-04-12T12:31:53.540Z,99591.72
2023-04-12T12:34:33.322Z,99578.69
2023-04-12T12:37:00.266Z,99589.06
2023-04-12T12:39:33.263Z,99590.88
2023-04-12T12:42:07.243Z,99577.69
2023-04-12T12:44:37.050Z,99582.03
2023-04-12T12:47:14.523Z,99587.19
2023-04-12T12:49:41.833Z,99602.50
2023-04-12T12:52:17.686Z,99610.78
2023-04-12T12:54:45.140Z,99616.34
2023-04-12T12:57:18.355Z,99618.03
2023-04-12T12:59:51.328Z,99620.56
2023-04-12T13:02:26.449Z,99622.69
2023-04-12T13:04:53.529Z,99607.63
2023-04-12T13:07:27.314Z,99616.22
2023-04-12T13:10:00.322Z,99623.25
2023-04-12T13:12:33.322Z,99617.94
2023-04-12T13:17:46.348Z,99615.28
2023-04-12T13:20:20.391Z,99617.84
2023-04-12T13:22:53.325Z,99617.28
2023-04-12T13:25:21.301Z,99619.94
2023-04-12T13:27:49.429Z,99613.06
2023-04-12T13:30:23.314Z,99599.94
2023-04-12T13:32:50.586Z,99602.56
2023-04-12T13:35:32.326Z,99591.22
2023-04-12T13:37:59.001Z,99593.56
2023-04-12T13:40:32.301Z,99594.78
2023-04-12T13:42:59.597Z,99594.59
2023-04-12T13:45:34.299Z,99596.91
2023-04-12T13:48:01.221Z,99582.34
2023-04-12T13:50:34.337Z,99597.28
2023-04-12T13:53:01.670Z,99601.34
2023-04-12T13:55:35.371Z,99611.44
2023-04-12T13:58:02.104Z,99619.91
2023-04-12T14:00:35.373Z,99621.66
2023-04-12T14:03:09.422Z,99610.94
2023-04-12T14:05:36.520Z,99614.44
2023-04-12T14:08:09.336Z,99608.03
2023-04-12T14:10:36.083Z,99605.09
2023-04-12T14:13:09.395Z,99606.75
2023-04-12T14:15:36.319Z,99605.91
2023-04-12T14:18:09.411Z,99618.50
2023-04-12T14:20:36.184Z,99617.63
2023-04-12T14:23:09.358Z,99613.88
2023-04-12T14:25:46.339Z,99619.44
2023-04-12T14:28:23.350Z,99615.94
2023-04-12T14:30:59.310Z,99614.13
2023-04-12T14:33:46.692Z,99610.75
2023-04-12T14:36:20.310Z,99607.34
2023-04-12T14:38:47.054Z,99611.22
2023-04-12T14:41:20.323Z,99618.09
2023-04-12T14:43:47.115Z,99613.91
2023-04-12T14:46:20.310Z,99616.16
2023-04-12T14:48:47.045Z,99615.91
2023-04-12T14:51:20.373Z,99618.19
2023-04-12T14:53:55.424Z,99615.09
2023-04-12T14:56:34.328Z,99625.16
2023-04-12T14:59:03.927Z,99627.28
2023-04-12T15:01:37.459Z,99613.03
2023-04-12T15:04:06.775Z,99612.72
2023-04-12T15:06:49.292Z,99617.63
2023-04-12T15:09:24.392Z,99617.03
2023-04-12T15:11:55.059Z,99614.09
2023-04-12T15:14:30.477Z,99614.09
2023-04-12T15:16:57.402Z,99620.22
2023-04-12T15:19:30.350Z,99629.06
2023-04-12T15:21:57.161Z,99628.50
2023-04-12T15:24:31.308Z,99641.66
2023-04-12T15:26:58.040Z,99632.16
2023-04-12T15:29:33.391Z,99636.34
2023-04-12T15:32:00.559Z,99649.53
2023-04-12T15:34:35.389Z,99652.19
2023-04-12T15:37:02.718Z,99649.66
2023-04-12T15:39:36.334Z,99665.50
2023-04-12T15:42:10.447Z,99657.78
2023-04-12T15:44:37.293Z,99650.78
2023-04-12T15:47:11.818Z,99671.91
2023-04-12T15:49:40.145Z,99664.94
2023-04-12T15:52:13.407Z,99682.56
2023-04-12T15:54:43.538Z,99683.25
2023-04-12T15:57:18.378Z,99670.41
2023-04-12T15:59:45.102Z,99689.72
2023-04-12T16:02:18.523Z,99688.59
2023-04-12T16:04:46.102Z,99697.69
2023-04-12T16:07:21.389Z,99703.69
2023-04-12T16:09:48.146Z,99699.22
2023-04-12T16:12:21.380Z,99702.28
2023-04-12T16:14:54.344Z,99698.50
2023-04-12T16:17:27.420Z,99715.16
2023-04-12T16:20:01.414Z,99723.97
2023-04-12T16:22:28.086Z,99726.63
2023-04-12T16:25:01.441Z,99724.09
2023-04-12T16:27:29.663Z,99722.41
2023-04-12T16:30:04.415Z,99727.72
2023-04-12T16:32:32.395Z,99720.75
2023-04-12T16:35:05.370Z,99701.44
2023-04-12T16:37:32.155Z,99698.94
2023-04-12T16:40:05.380Z,99698.38
2023-04-12T16:42:32.110Z,99720.28
2023-04-12T16:45:05.356Z,99718.34
2023-04-12T16:47:38.427Z,99711.50
2023-04-12T16:50:15.452Z,99711.50
2023-04-12T16:52:42.405Z,99699.19
2023-04-12T16:55:19.435Z,99707.44
2023-04-12T16:57:53.388Z,99698.31
2023-04-12T17:00:28.451Z,99692.28
2023-04-12T17:03:01.425Z,99694.91
2023-04-12T17:05:28.271Z,99693.19
2023-04-12T17:08:01.443Z,99689.91
2023-04-12T17:10:28.416Z,99697.44
2023-04-12T17:13:04.462Z,99691.97
2023-04-12T17:15:31.661Z,99684.81
2023-04-12T17:18:18.458Z,99696.22
2023-04-12T17:20:52.475Z,99694.78
2023-04-12T17:23:25.461Z,99706.38
2023-04-12T17:25:52.595Z,99704.09
2023-04-12T17:28:26.407Z,99707.03
2023-04-12T17:31:00.439Z,99695.97
2023-04-12T17:33:47.419Z,99688.72
2023-04-12T17:36:20.474Z,99694.13
2023-04-12T17:38:47.251Z,99691.56
2023-04-12T17:41:20.440Z,99685.03
2023-04-12T17:43:47.475Z,99680.28
2023-04-12T17:46:20.562Z,99676.78
2023-04-12T17:48:47.339Z,99687.03
2023-04-12T17:51:22.426Z,99691.84
2023-04-12T17:53:50.556Z,99700.09
2023-04-12T17:56:23.362Z,99695.56
2023-04-12T17:58:50.165Z,99699.00
2023-04-12T18:01:23.483Z,99697.53
2023-04-12T18:04:04.586Z,99706.81
2023-04-12T18:06:32.230Z,99702.56
2023-04-12T18:09:05.458Z,99708.50
2023-04-12T18:11:39.023Z,99703.09
2023-04-12T18:14:13.508Z,99708.94
2023-04-12T18:16:40.665Z,99711.25
2023-04-12T18:19:14.464Z,99716.91
2023-04-12T18:21:41.220Z,99712.94
2023-04-12T18:24:14.433Z,99713.47
2023-04-12T18:26:41.137Z,99715.75
2023-04-12T18:29:14.428Z,99715.16
2023-04-12T18:31:41.890Z,99718.19
2023-04-12T18:34:29.424Z,99727.47
2023-04-12T18:36:56.146Z,99732.16
2023-04-12T18:39:29.440Z,99723.50
2023-04-12T18:41:57.275Z,99720.66
2023-04-12T18:44:30.500Z,99728.59
2023-04-12T18:46:57.328Z,99725.44
2023-04-12T18:49:31.448Z,99723.53
2023-04-12T18:52:05.491Z,99727.50
2023-04-12T18:54:32.251Z,99737.25
2023-04-12T18:57:08.514Z,99737.34
2023-04-12T18:59:35.241Z,99734.34
2023-04-12T19:02:08.504Z,99730.13
2023-04-12T19:04:36.201Z,99744.22
2023-04-12T19:07:09.496Z,99734.63
2023-04-12T19:09:36.247Z,99736.28
2023-04-12T19:12:09.433Z,99736.66
2023-04-12T19:14:36.352Z,99737.72
2023-04-12T19:17:09.455Z,99737.97
2023-04-12T19:19:36.231Z,99744.34
2023-04-12T19:22:03.310Z,99748.09
2023-04-12T19:24:36.445Z,99742.16
2023-04-12T19:27:03.808Z,99744.91
2023-04-12T19:29:37.508Z,99743.97
2023-04-12T19:32:06.936Z,99736.03
2023-04-12T19:34:47.613Z,99742.25
2023-04-12T19:37:20.586Z,99742.38
2023-04-12T19:39:53.472Z,99743.50
2023-04-12T19:42:26.469Z,99734.22
2023-04-12T19:44:53.201Z,99737.09
2023-04-12T19:47:27.515Z,99740.97
2023-04-12T19:50:02.471Z,99727.94
2023-04-12T19:52:29.463Z,99729.41
2023-04-12T19:55:03.472Z,99725.31
2023-04-12T19:57:36.481Z,99731.56
2023-04-12T20:00:05.322Z,99724.72
2023-04-12T20:02:38.713Z,99730.94
2023-04-12T20:05:07.844Z,99731.94
2023-04-12T20:07:37.509Z,99728.44
2023-04-12T20:10:11.540Z,99730.34
2023-04-12T20:12:45.502Z,99732.38
2023-04-12T20:15:12.682Z,99726.38
2023-04-12T20:17:49.634Z,99723.13
2023-04-12T20:20:17.447Z,99720.59
2023-04-12T20:22:58.505Z,99718.34
2023-04-12T20:25:26.044Z,99717.47
2023-04-12T20:27:59.559Z,99721.78
2023-04-12T20:30:27.033Z,99724.22
2023-04-12T20:33:01.681Z,99720.00
2023-04-12T20:35:49.615Z,99712.56
2023-04-12T20:38:22.484Z,99707.50
2023-04-12T20:40:49.139Z,99703.44
2023-04-12T20:43:23.449Z,99711.56
2023-04-12T20:45:57.472Z,99706.53
2023-04-12T20:48:31.534Z,99703.03
2023-04-12T20:51:04.524Z,99691.63
2023-04-12T20:53:31.185Z,99693.19
2023-04-12T20:56:04.490Z,99681.44
2023-04-12T20:58:35.217Z,99678.91
2023-04-12T21:01:11.684Z,99681.44
2023-04-12T21:03:39.297Z,99669.41
2023-04-12T21:06:13.506Z,99678.91
2023-04-12T21:08:46.445Z,99664.38
2023-04-12T21:11:20.490Z,99672.91
2023-04-12T21:13:47.311Z,99669.41
2023-04-12T21:16:16.243Z,99665.72
2023-04-12T21:18:49.597Z,99657.88
2023-04-12T21:21:16.538Z,99640.22
2023-04-12T21:23:50.565Z,99645.91
2023-04-12T21:26:17.260Z,99644.56
2023-04-12T21:28:50.688Z,99652.28
2023-04-12T21:31:24.620Z,99655.38
2023-04-12T21:33:58.603Z,99650.47
2023-04-12T21:36:32.051Z,99663.53
2023-04-12T21:39:05.539Z,99654.56
2023-04-12T21:41:32.344Z,99653.69
2023-04-12T21:44:05.611Z,99644.81
2023-04-12T21:46:38.789Z,99649.25
2023-04-12T21:49:05.688Z,99644.91
2023-04-12T21:51:39.524Z,99644.09
2023-04-12T21:54:06.222Z,99637.84
2023-04-12T21:56:39.479Z,99631.81
2023-04-12T21:59:12.550Z,99632.81
2023-04-12T22:01:45.608Z,99625.13
2023-04-12T22:04:19.511Z,99625.00
2023-04-12T22:06:52.636Z,99622.47
2023-04-12T22:09:26.564Z,99621.75
2023-04-12T22:12:00.534Z,99624.41
2023-04-12T22:14:28.891Z,99625.13
2023-04-12T22:17:02.710Z,99626.91
2023-04-12T22:19:35.607Z,99609.50
2023-04-12T22:22:03.012Z,99600.03
2023-04-12T22:24:36.588Z,99599.16
2023-04-12T22:27:03.899Z,99593.41
2023-04-12T22:29:37.839Z,99594.13
2023-04-12T22:32:11.637Z,99588.84
2023-04-12T22:34:57.918Z,99577.69
2023-04-12T22:37:35.124Z,99586.34
2023-04-12T22:40:08.557Z,99584.75
2023-04-12T22:42:37.065Z,99578.88
2023-04-12T22:45:16.686Z,99585.50
2023-04-12T22:47:46.626Z,99580.53
2023-04-12T22:50:19.554Z,99582.13
2023-04-12T22:52:56.536Z,99573.59
2023-04-12T22:55:23.362Z,99561.91
2023-04-12T22:57:56.521Z,99552.19
2023-04-12T23:00:31.592Z,99548.81
2023-04-12T23:03:04.643Z,99539.81
2023-04-12T23:05:31.413Z,99531.91
2023-04-12T23:08:04.547Z,99529.25
2023-04-12T23:10:34.051Z,99528.16
2023-04-12T23:13:07.544Z,99519.59
2023-04-12T23:15:35.192Z,99512.97
2023-04-12T23:18:12.622Z,99504.66
2023-04-12T23:20:40.493Z,99511.13
2023-04-12T23:23:13.719Z,99502.34
2023-04-12T23:25:41.605Z,99500.69
2023-04-12T23:28:20.554Z,99494.19
2023-04-12T23:30:51.318Z,99493.91
2023-04-12T23:33:26.614Z,99489.34
2023-04-12T23:36:03.531Z,99497.03
2023-04-12T23:38:40.742Z,99484.78
2023-04-12T23:41:10.305Z,99490.81
2023-04-12T23:43:43.546Z,99485.53
2023-04-12T23:46:16.633Z,99481.75
2023-04-12T23:48:43.384Z,99468.19
2023-04-12T23:51:16.588Z,99480.09
2023-04-12T23:53:43.523Z,99478.03
2023-04-12T23:56:16.608Z,99475.00
2023-04-12T23:58:43.257Z,99472.44
